Time;durP1;ratioP1;P1;durP2;ratioP2;P2;SDS_P1;SDS_P2;PMS_P1;PMS_P2;Temp;Humidity;BMP_temperature;BMP_pressure;BME280_temperature;BME280_humidity;BME280_pressure;Samples;Min_cycle;Max_cycle;Signal;HPM_P1;HPM_P2
2022/04/14 00:00:29;;;;;;;11.13;7.03;;;11.40;99.90;;;;;;5022713;28;20049;-58
2022/04/14 00:02:56;;;;;;;11.02;8.00;;;11.30;99.90;;;;;;5021470;28;20049;-58
2022/04/14 00:05:23;;;;;;;12.52;8.13;;;11.20;99.90;;;;;;5022093;28;20089;-58
2022/04/14 00:07:49;;;;;;;11.20;8.50;;;11.20;99.90;;;;;;4984829;28;20053;-58
2022/04/14 00:10:16;;;;;;;11.55;8.35;;;11.10;99.90;;;;;;5021093;28;20377;-58
2022/04/14 00:12:42;;;;;;;13.75;8.60;;;11.10;99.90;;;;;;5023499;28;20045;-57
2022/04/14 00:15:11;;;;;;;11.00;8.80;;;11.10;99.90;;;;;;5022383;28;20124;-58
2022/04/14 00:17:37;;;;;;;13.68;9.63;;;11.00;99.90;;;;;;5020466;28;20093;-58
2022/04/14 00:20:06;;;;;;;11.70;8.60;;;11.00;99.90;;;;;;5023948;28;20757;-58
2022/04/14 00:22:38;;;;;;;14.30;9.63;;;11.00;99.90;;;;;;5021853;28;20049;-57
2022/04/14 00:25:05;;;;;;;12.68;9.88;;;11.00;99.90;;;;;;5020705;28;20049;-55
2022/04/14 00:27:31;;;;;;;14.25;10.27;;;11.00;99.90;;;;;;5021602;28;20092;-55
2022/04/14 00:29:57;;;;;;;14.23;10.45;;;11.00;99.90;;;;;;5020500;28;20045;-54
2022/04/14 00:32:23;;;;;;;12.77;10.45;;;11.00;99.90;;;;;;5022476;28;20407;-54
2022/04/14 00:34:49;;;;;;;13.02;10.35;;;11.00;99.90;;;;;;5003537;28;20599;-53
2022/04/14 00:37:17;;;;;;;17.20;11.75;;;10.90;99.90;;;;;;5018059;28;20140;-55
2022/04/14 00:39:43;;;;;;;17.00;11.65;;;10.90;99.90;;;;;;5010311;28;20124;-54
2022/04/14 00:42:11;;;;;;;13.73;11.68;;;10.80;99.90;;;;;;5014657;28;20409;-55
2022/04/14 00:44:38;;;;;;;14.88;12.85;;;10.80;99.90;;;;;;5022590;28;20049;-54
2022/04/14 00:47:06;;;;;;;15.65;12.82;;;10.80;99.90;;;;;;5021429;28;20106;-54
2022/04/14 00:49:33;;;;;;;17.10;13.35;;;10.70;99.90;;;;;;5018864;28;20060;-53
2022/04/14 00:52:00;;;;;;;14.80;13.20;;;10.70;99.90;;;;;;5018275;28;20103;-53
2022/04/14 00:54:30;;;;;;;17.48;13.18;;;10.80;99.90;;;;;;5009093;28;20045;-55
2022/04/14 00:57:02;;;;;;;18.23;14.55;;;10.80;99.90;;;;;;5023624;28;20569;-54
2022/04/14 00:59:29;;;;;;;18.20;14.10;;;10.80;99.90;;;;;;5024594;28;20065;-55
2022/04/14 01:01:56;;;;;;;19.30;14.75;;;10.80;99.90;;;;;;5023961;28;20057;-54
2022/04/14 01:04:22;;;;;;;16.33;13.80;;;10.80;99.90;;;;;;5026670;28;20080;-55
2022/04/14 01:06:49;;;;;;;19.45;13.60;;;10.80;99.90;;;;;;5007197;28;20044;-54
2022/04/14 01:09:20;;;;;;;18.40;15.77;;;10.80;99.90;;;;;;5001713;28;20049;-55
2022/04/14 01:11:51;;;;;;;15.25;12.70;;;10.80;99.90;;;;;;5023606;28;20159;-55
2022/04/14 01:14:37;;;;;;;23.67;15.18;;;10.80;99.90;;;;;;4994927;28;20092;-53
2022/04/14 01:17:08;;;;;;;17.13;15.30;;;10.80;99.90;;;;;;5024992;28;20056;-54
2022/04/14 01:19:35;;;;;;;19.80;15.65;;;10.80;99.90;;;;;;5024938;28;20064;-55
2022/04/14 01:22:06;;;;;;;19.48;15.10;;;10.70;99.90;;;;;;5022291;28;20045;-54
2022/04/14 01:24:32;;;;;;;17.23;15.13;;;10.70;99.90;;;;;;5007013;28;20116;-54
2022/04/14 01:27:00;;;;;;;19.33;16.25;;;10.60;99.90;;;;;;5024993;28;20076;-55
2022/04/14 01:29:28;;;;;;;17.02;15.23;;;10.60;99.90;;;;;;5021990;28;20571;-54
2022/04/14 01:31:55;;;;;;;15.90;14.10;;;10.60;99.90;;;;;;4988448;28;20570;-53
2022/04/14 01:34:21;;;;;;;18.95;15.52;;;10.50;99.90;;;;;;5019081;28;20057;-55
2022/04/14 01:36:47;;;;;;;24.80;17.20;;;10.50;99.90;;;;;;5023491;28;20049;-55
2022/04/14 01:39:14;;;;;;;21.77;16.02;;;10.50;99.90;;;;;;5022793;28;20049;-55
2022/04/14 01:41:44;;;;;;;18.45;16.13;;;10.40;99.90;;;;;;5022299;28;20085;-55
2022/04/14 01:44:11;;;;;;;21.58;16.92;;;10.40;99.90;;;;;;5017540;28;20060;-53
2022/04/14 01:46:38;;;;;;;17.83;15.93;;;10.40;99.90;;;;;;5026067;28;20090;-56
2022/04/14 01:49:04;;;;;;;21.50;15.50;;;10.40;99.90;;;;;;5006272;28;20048;-55
2022/04/14 01:51:31;;;;;;;20.45;15.57;;;10.30;99.90;;;;;;5020521;28;20132;-54
2022/04/14 01:53:57;;;;;;;21.15;17.02;;;10.30;99.90;;;;;;5023964;28;20061;-55
2022/04/14 01:56:23;;;;;;;21.58;17.63;;;10.30;99.90;;;;;;5019686;28;20508;-55
2022/04/14 01:58:50;;;;;;;19.23;17.10;;;10.30;99.90;;;;;;5007974;28;20081;-54
2022/04/14 02:01:16;;;;;;;25.63;18.30;;;10.30;99.90;;;;;;5029481;28;20505;-54
2022/04/14 02:03:42;;;;;;;21.80;17.58;;;10.20;99.90;;;;;;5046740;28;20064;-55
2022/04/14 02:06:09;;;;;;;23.63;18.10;;;10.20;99.90;;;;;;5022084;28;20049;-55
2022/04/14 02:08:36;;;;;;;19.05;16.67;;;10.20;99.90;;;;;;5018301;28;20067;-55
2022/04/14 02:11:03;;;;;;;23.08;19.85;;;10.20;99.90;;;;;;5020950;28;20041;-53
2022/04/14 02:13:30;;;;;;;21.73;18.77;;;10.20;99.90;;;;;;5024991;28;20052;-54
2022/04/14 02:15:57;;;;;;;22.75;20.30;;;10.20;99.90;;;;;;5018670;28;20088;-55
2022/04/14 02:18:23;;;;;;;22.75;20.33;;;10.20;99.90;;;;;;5000005;28;20200;-55
2022/04/14 02:20:49;;;;;;;25.42;20.73;;;10.20;99.90;;;;;;5018489;28;20049;-57
2022/04/14 02:23:16;;;;;;;24.77;19.20;;;10.20;99.90;;;;;;4985379;28;20136;-57
2022/04/14 02:25:42;;;;;;;23.27;19.90;;;10.10;99.90;;;;;;5022983;28;20057;-55
2022/04/14 02:28:08;;;;;;;24.80;20.55;;;10.10;99.90;;;;;;5026172;28;20367;-55
2022/04/14 02:30:34;;;;;;;25.45;20.38;;;10.10;99.90;;;;;;5022262;28;20049;-55
2022/04/14 02:33:01;;;;;;;24.92;20.85;;;10.00;99.90;;;;;;5022300;28;20049;-54
2022/04/14 02:35:27;;;;;;;28.27;20.27;;;10.00;99.90;;;;;;5023090;28;20053;-54
2022/04/14 02:37:56;;;;;;;27.77;22.75;;;10.00;99.90;;;;;;5006320;28;20049;-54
2022/04/14 02:40:25;;;;;;;24.27;21.17;;;10.00;99.90;;;;;;5022505;28;20128;-54
2022/04/14 02:42:56;;;;;;;27.77;22.35;;;10.00;99.90;;;;;;5004562;28;20057;-54
2022/04/14 02:45:24;;;;;;;27.00;22.48;;;10.00;99.90;;;;;;5023561;28;20552;-54
2022/04/14 02:47:50;;;;;;;26.95;22.48;;;10.00;99.90;;;;;;5019887;28;20372;-58
2022/04/14 02:50:16;;;;;;;28.98;23.38;;;10.00;99.90;;;;;;5021238;28;20099;-59
2022/04/14 02:52:43;;;;;;;24.58;21.98;;;9.90;99.90;;;;;;5022613;28;20053;-57
2022/04/14 02:55:09;;;;;;;24.92;21.90;;;9.90;99.90;;;;;;5009332;28;20060;-54
2022/04/14 02:57:35;;;;;;;27.42;21.48;;;9.80;99.90;;;;;;5017427;28;20052;-54
2022/04/14 03:00:05;;;;;;;26.65;21.33;;;9.70;99.90;;;;;;5023686;28;20135;-55
2022/04/14 03:02:31;;;;;;;29.13;22.77;;;9.70;99.90;;;;;;5020909;28;20448;-59
2022/04/14 03:04:58;;;;;;;27.25;22.63;;;9.60;99.90;;;;;;5023632;28;20053;-59
2022/04/14 03:07:24;;;;;;;26.40;22.55;;;9.50;99.90;;;;;;5022519;28;20045;-53
2022/04/14 03:09:51;;;;;;;26.58;22.95;;;9.50;99.90;;;;;;4981154;28;20054;-52
2022/04/14 03:12:17;;;;;;;28.52;24.50;;;9.50;99.90;;;;;;5019250;28;20053;-56
2022/04/14 03:14:43;;;;;;;30.52;26.15;;;9.50;99.90;;;;;;5019188;28;20073;-57
2022/04/14 03:17:09;;;;;;;35.97;27.40;;;9.50;99.90;;;;;;5024823;28;20117;-57
2022/04/14 03:19:36;;;;;;;32.35;26.52;;;9.60;99.90;;;;;;5012887;28;20053;-52
2022/04/14 03:22:02;;;;;;;33.85;28.63;;;9.60;99.90;;;;;;5023508;28;20057;-52
2022/04/14 03:24:29;;;;;;;35.50;29.00;;;9.60;99.90;;;;;;5023683;28;20718;-58
2022/04/14 03:26:55;;;;;;;34.17;29.08;;;9.70;99.90;;;;;;5022711;28;20084;-57
2022/04/14 03:29:21;;;;;;;36.53;28.00;;;9.70;99.90;;;;;;5016627;28;20062;-57
2022/04/14 03:31:47;;;;;;;35.20;29.40;;;9.70;99.90;;;;;;5003299;28;20640;-57
2022/04/14 03:34:13;;;;;;;35.75;29.55;;;9.80;99.90;;;;;;5021703;28;20128;-57
2022/04/14 03:36:39;;;;;;;34.50;30.00;;;9.80;99.90;;;;;;5023486;28;20045;-57
2022/04/14 03:39:05;;;;;;;35.70;30.45;;;9.80;99.90;;;;;;5019910;28;20065;-57
2022/04/14 03:41:31;;;;;;;35.65;29.02;;;9.80;99.90;;;;;;5008924;28;20049;-57
2022/04/14 03:43:57;;;;;;;33.83;29.90;;;9.80;99.90;;;;;;5021054;28;20493;-58
2022/04/14 03:46:24;;;;;;;33.38;29.73;;;9.70;99.90;;;;;;5005107;28;20061;-57
2022/04/14 03:48:50;;;;;;;36.30;29.08;;;9.70;99.90;;;;;;5023274;28;20052;-57
2022/04/14 03:51:16;;;;;;;34.85;29.98;;;9.70;99.90;;;;;;5013761;28;20058;-57
2022/04/14 03:53:43;;;;;;;32.33;28.80;;;9.60;99.90;;;;;;5022778;28;20076;-57
2022/04/14 03:56:10;;;;;;;34.00;30.05;;;9.60;99.90;;;;;;5013321;28;20045;-57
2022/04/14 03:58:36;;;;;;;31.80;28.23;;;9.60;99.90;;;;;;5023274;28;20456;-57
2022/04/14 04:01:03;;;;;;;32.42;27.58;;;9.60;99.90;;;;;;4998662;28;20056;-57
2022/04/14 04:03:29;;;;;;;31.63;28.23;;;9.50;99.90;;;;;;4979707;28;20156;-58
2022/04/14 04:05:55;;;;;;;31.08;27.60;;;9.50;99.90;;;;;;5034849;28;20049;-58
2022/04/14 04:08:22;;;;;;;30.25;25.35;;;9.40;99.90;;;;;;5010835;28;20108;-58
2022/04/14 04:10:48;;;;;;;29.77;26.65;;;9.40;99.90;;;;;;5017262;28;20049;-58
2022/04/14 04:13:14;;;;;;;32.05;28.63;;;9.30;99.90;;;;;;5003701;28;20815;-58
2022/04/14 04:15:40;;;;;;;33.40;29.08;;;9.30;99.90;;;;;;5021134;28;20053;-59
2022/04/14 04:18:07;;;;;;;28.90;25.77;;;9.20;99.90;;;;;;5021832;28;20053;-58
2022/04/14 04:20:33;;;;;;;36.38;31.88;;;9.20;99.90;;;;;;5020251;28;20129;-58
2022/04/14 04:23:03;;;;;;;34.13;30.42;;;9.10;99.90;;;;;;5019408;28;20052;-59
2022/04/14 04:25:29;;;;;;;39.70;33.30;;;9.10;99.90;;;;;;5021622;28;20060;-54
2022/04/14 04:27:55;;;;;;;35.97;29.10;;;9.10;99.90;;;;;;5007749;28;20049;-55
2022/04/14 04:30:21;;;;;;;33.25;29.45;;;8.90;99.90;;;;;;5025573;28;20045;-55
2022/04/14 04:32:48;;;;;;;36.40;29.52;;;8.80;99.90;;;;;;4988973;28;20045;-58
2022/04/14 04:35:17;;;;;;;32.33;28.10;;;8.80;99.90;;;;;;5018968;28;20439;-58
2022/04/14 04:37:43;;;;;;;32.53;29.00;;;8.70;99.90;;;;;;5026438;28;20295;-58
2022/04/14 04:40:10;;;;;;;33.92;28.17;;;8.70;99.90;;;;;;5024585;28;20049;-58
2022/04/14 04:42:36;;;;;;;34.33;28.70;;;8.60;99.90;;;;;;5025846;28;20046;-57
2022/04/14 04:45:02;;;;;;;29.65;24.85;;;8.60;99.90;;;;;;5026710;28;20124;-58
2022/04/14 04:47:28;;;;;;;37.65;31.42;;;8.60;99.90;;;;;;5022856;28;20239;-59
2022/04/14 04:49:54;;;;;;;37.45;31.10;;;8.60;99.90;;;;;;5025325;28;20053;-58
2022/04/14 04:52:21;;;;;;;34.63;30.92;;;8.50;99.90;;;;;;5025216;28;20104;-58
2022/04/14 04:54:49;;;;;;;36.35;31.48;;;8.60;99.90;;;;;;5004764;28;20049;-58
2022/04/14 04:57:15;;;;;;;40.08;31.52;;;8.50;99.90;;;;;;5023301;28;20139;-58
2022/04/14 04:59:41;;;;;;;42.40;33.05;;;8.50;99.90;;;;;;5023595;28;20137;-58
2022/04/14 05:02:08;;;;;;;37.83;33.42;;;8.50;99.90;;;;;;5023559;28;20056;-58
2022/04/14 05:04:34;;;;;;;36.95;31.38;;;8.40;99.90;;;;;;5003607;28;20161;-59
2022/04/14 05:07:00;;;;;;;38.97;31.27;;;8.40;99.90;;;;;;5018041;28;20132;-53
2022/04/14 05:09:26;;;;;;;39.08;32.42;;;8.40;99.90;;;;;;5025166;28;20057;-58
2022/04/14 05:11:52;;;;;;;40.55;33.03;;;8.40;99.90;;;;;;5021280;28;20057;-60
2022/04/14 05:14:18;;;;;;;36.80;31.52;;;8.40;99.90;;;;;;4988141;28;20046;-59
2022/04/14 05:16:44;;;;;;;34.95;31.10;;;8.40;99.90;;;;;;5026337;28;20590;-58
2022/04/14 05:19:10;;;;;;;37.78;33.35;;;8.30;99.90;;;;;;5027294;28;20060;-58
2022/04/14 05:21:37;;;;;;;41.88;33.72;;;8.40;99.90;;;;;;5035129;28;20045;-54
2022/04/14 05:24:03;;;;;;;43.90;33.78;;;8.40;99.90;;;;;;5026225;28;20048;-55
2022/04/14 05:26:32;;;;;;;42.88;35.05;;;8.40;99.90;;;;;;5021010;28;20049;-54
2022/04/14 05:28:59;;;;;;;45.13;37.05;;;8.50;99.90;;;;;;5021513;28;20053;-53
2022/04/14 05:31:25;;;;;;;46.60;38.20;;;8.50;99.90;;;;;;5022103;28;20045;-54
2022/04/14 05:33:51;;;;;;;45.70;38.42;;;8.60;99.90;;;;;;5025019;28;20053;-54
2022/04/14 05:36:17;;;;;;;46.58;39.15;;;8.60;99.90;;;;;;5028208;28;20850;-53
2022/04/14 05:38:43;;;;;;;51.17;39.63;;;8.70;99.90;;;;;;5022062;28;20095;-54
2022/04/14 05:41:12;;;;;;;48.17;40.45;;;8.80;99.90;;;;;;5024258;28;20045;-55
2022/04/14 05:43:38;;;;;;;49.42;39.83;;;8.80;99.90;;;;;;5025205;28;20103;-54
2022/04/14 05:46:04;;;;;;;46.05;36.95;;;8.90;99.90;;;;;;5018731;28;20124;-54
2022/04/14 05:48:30;;;;;;;47.20;37.10;;;9.10;99.90;;;;;;5021737;28;20131;-52
2022/04/14 05:50:56;;;;;;;39.85;35.10;;;9.20;99.90;;;;;;5021733;28;20053;-56
2022/04/14 05:53:27;;;;;;;42.78;34.85;;;9.40;99.90;;;;;;5025313;28;20054;-59
2022/04/14 05:55:54;;;;;;;37.30;33.30;;;9.50;99.90;;;;;;4987030;28;22079;-57
2022/04/14 05:58:20;;;;;;;39.42;31.85;;;9.60;99.90;;;;;;5022713;28;20069;-58
2022/04/14 06:00:46;;;;;;;35.83;31.98;;;9.80;99.90;;;;;;5023626;28;20045;-58
2022/04/14 06:03:12;;;;;;;35.00;30.00;;;9.90;99.90;;;;;;5018459;28;20401;-58
2022/04/14 06:05:38;;;;;;;35.92;30.88;;;10.00;99.90;;;;;;5019162;28;20049;-58
2022/04/14 06:08:05;;;;;;;33.83;28.30;;;10.20;99.90;;;;;;5024233;28;20788;-58
2022/04/14 06:10:31;;;;;;;33.50;29.98;;;10.30;99.90;;;;;;5025816;28;20060;-59
2022/04/14 06:12:57;;;;;;;32.97;29.52;;;10.40;99.90;;;;;;5031293;28;20120;-58
2022/04/14 06:15:26;;;;;;;31.63;28.25;;;10.60;99.90;;;;;;5020059;28;20814;-58
2022/04/14 06:17:52;;;;;;;31.02;27.60;;;10.80;99.90;;;;;;5019958;28;20524;-58
2022/04/14 06:20:19;;;;;;;32.22;27.30;;;10.90;99.90;;;;;;4983454;28;20136;-58
2022/04/14 06:22:45;;;;;;;32.25;28.52;;;11.00;99.90;;;;;;5019736;28;20059;-57
2022/04/14 06:25:13;;;;;;;29.55;26.50;;;11.10;99.90;;;;;;5011412;28;20049;-53
2022/04/14 06:27:45;;;;;;;32.75;28.48;;;11.30;99.90;;;;;;5015845;28;20046;-55
2022/04/14 06:30:14;;;;;;;31.23;28.02;;;11.50;99.90;;;;;;5014928;28;20095;-55
2022/04/14 06:32:40;;;;;;;32.28;28.52;;;11.60;99.90;;;;;;5015022;28;20073;-49
2022/04/14 06:35:09;;;;;;;32.75;29.05;;;11.80;99.90;;;;;;5022935;28;20444;-55
2022/04/14 06:37:35;;;;;;;34.17;28.70;;;11.90;99.90;;;;;;5017331;28;20061;-55
2022/04/14 06:40:02;;;;;;;32.63;28.13;;;12.00;99.90;;;;;;4998358;28;20140;-56
2022/04/14 06:42:29;;;;;;;32.13;28.73;;;12.10;99.90;;;;;;5021430;28;20041;-56
2022/04/14 06:44:59;;;;;;;33.33;29.65;;;12.20;99.90;;;;;;5011693;28;20402;-56
2022/04/14 06:47:28;;;;;;;32.25;28.85;;;12.30;99.90;;;;;;5012194;28;20180;-57
2022/04/14 06:49:55;;;;;;;32.95;28.13;;;12.50;99.90;;;;;;5012418;28;20634;-55
2022/04/14 06:52:21;;;;;;;31.65;28.30;;;12.60;99.90;;;;;;5011172;28;20061;-56
2022/04/14 06:54:48;;;;;;;33.42;28.08;;;12.70;99.90;;;;;;5014861;28;20038;-56
2022/04/14 07:01:48;;;;;;;30.88;27.45;;;13.00;99.90;;;;;;5012039;28;20060;-55
2022/04/14 07:04:14;;;;;;;33.30;27.52;;;13.20;99.90;;;;;;5007530;28;20049;-56
2022/04/14 07:06:40;;;;;;;29.38;26.40;;;13.50;99.90;;;;;;5011434;28;20049;-55
2022/04/14 07:09:06;;;;;;;29.52;26.52;;;13.60;99.90;;;;;;4983832;28;20143;-56
2022/04/14 07:11:33;;;;;;;28.15;25.23;;;13.80;99.90;;;;;;4982922;28;20974;-56
2022/04/14 07:13:59;;;;;;;27.40;24.50;;;13.90;99.90;;;;;;5007067;28;20124;-56
2022/04/14 07:16:26;;;;;;;30.42;26.60;;;14.10;99.90;;;;;;5008270;28;20056;-54
2022/04/14 07:18:52;;;;;;;26.38;23.67;;;14.40;99.90;;;;;;4991050;28;20671;-56
2022/04/14 07:21:18;;;;;;;29.15;26.08;;;14.60;99.90;;;;;;5017140;28;20406;-53
2022/04/14 07:23:44;;;;;;;26.25;23.58;;;14.90;99.90;;;;;;4988757;28;20060;-52
2022/04/14 07:26:10;;;;;;;25.58;22.90;;;15.10;99.90;;;;;;5009782;28;20156;-53
2022/04/14 07:28:36;;;;;;;25.00;22.38;;;15.50;99.90;;;;;;5015609;28;20053;-59
2022/04/14 07:31:02;;;;;;;24.95;21.50;;;15.70;99.90;;;;;;5012626;28;20045;-60
2022/04/14 07:33:28;;;;;;;28.52;25.55;;;16.00;99.90;;;;;;5013487;28;20046;-59
2022/04/14 07:35:54;;;;;;;20.88;18.75;;;16.40;99.90;;;;;;5010927;28;20061;-59
2022/04/14 07:38:21;;;;;;;21.95;19.40;;;16.50;99.90;;;;;;5015631;28;20049;-59
2022/04/14 07:40:49;;;;;;;24.17;21.05;;;16.50;99.90;;;;;;5011653;28;20045;-61
2022/04/14 07:43:15;;;;;;;20.67;18.48;;;16.90;99.90;;;;;;5013471;28;20124;-61
2022/04/14 07:45:45;;;;;;;22.17;19.23;;;17.00;99.90;;;;;;5012387;28;20065;-61
2022/04/14 07:48:11;;;;;;;20.63;18.40;;;17.60;99.90;;;;;;5009854;28;20060;-61
2022/04/14 07:50:37;;;;;;;19.90;17.83;;;17.80;99.90;;;;;;5008321;28;20065;-59
2022/04/14 07:53:04;;;;;;;20.00;17.75;;;18.20;99.90;;;;;;5016371;28;20586;-62
2022/04/14 07:55:32;;;;;;;21.52;17.45;;;18.10;99.90;;;;;;5017088;28;20492;-60
2022/04/14 07:58:06;;;;;;;20.42;18.40;;;18.10;99.90;;;;;;5011990;28;20048;-60
2022/04/14 08:00:34;;;;;;;20.20;16.95;;;17.90;99.90;;;;;;5010112;28;20053;-60
2022/04/14 08:03:01;;;;;;;19.50;17.50;;;18.20;99.90;;;;;;5015809;28;20067;-61
2022/04/14 08:05:29;;;;;;;18.50;16.52;;;18.20;99.90;;;;;;5010630;28;20108;-61
2022/04/14 08:07:56;;;;;;;15.07;13.60;;;18.80;99.90;;;;;;5007556;28;20085;-61
2022/04/14 08:10:22;;;;;;;15.05;13.38;;;19.00;99.90;;;;;;5006560;28;20145;-55
2022/04/14 08:12:48;;;;;;;18.48;16.58;;;19.30;99.90;;;;;;4987170;28;20050;-55
2022/04/14 08:15:14;;;;;;;15.77;13.20;;;19.30;99.90;;;;;;4988144;28;20077;-55
2022/04/14 08:17:42;;;;;;;17.98;16.08;;;19.40;99.90;;;;;;5003664;28;20046;-52
2022/04/14 08:20:10;;;;;;;13.93;12.38;;;19.60;99.90;;;;;;5008297;28;20077;-55
2022/04/14 08:23:03;;;;;;;21.67;19.50;;;19.50;99.90;;;;;;5003642;28;20572;-55
2022/04/14 08:25:31;;;;;;;12.95;11.02;;;19.70;99.90;;;;;;5002330;28;20180;-55
2022/04/14 08:27:59;;;;;;;12.55;11.18;;;19.50;99.90;;;;;;5021876;28;20056;-54
2022/04/14 08:30:28;;;;;;;14.00;12.60;;;19.30;99.90;;;;;;5017913;28;20077;-55
2022/04/14 08:32:55;;;;;;;12.25;11.02;;;20.20;99.90;;;;;;5007090;28;20164;-56
2022/04/14 08:35:21;;;;;;;15.27;13.15;;;20.20;99.90;;;;;;5011476;28;20576;-55
2022/04/14 08:37:49;;;;;;;12.75;11.45;;;20.10;99.90;;;;;;5017647;28;20067;-55
2022/04/14 08:40:17;;;;;;;14.73;13.27;;;20.70;99.90;;;;;;5012377;28;20054;-64
2022/04/14 08:42:50;;;;;;;13.02;11.60;;;20.80;99.90;;;;;;5012272;28;20077;-63
2022/04/14 08:45:17;;;;;;;12.68;11.38;;;20.80;99.90;;;;;;5015771;28;20053;-64
2022/04/14 08:47:44;;;;;;;14.32;13.00;;;20.80;99.90;;;;;;5014723;28;20693;-55
2022/04/14 08:50:13;;;;;;;14.30;12.90;;;20.80;91.90;;;;;;5016063;28;20816;-52
2022/04/14 08:52:40;;;;;;;13.85;11.95;;;20.60;94.00;;;;;;4996752;28;20068;-63
2022/04/14 08:55:11;;;;;;;13.60;12.20;;;21.00;89.30;;;;;;5017466;28;20041;-63
2022/04/14 08:57:41;;;;;;;16.83;15.18;;;20.90;75.80;;;;;;5014846;28;20383;-63
2022/04/14 09:00:10;;;;;;;13.43;11.88;;;21.10;83.70;;;;;;4997641;28;20053;-62
2022/04/14 09:02:37;;;;;;;12.60;11.32;;;21.50;69.50;;;;;;5000033;28;20064;-63
2022/04/14 09:05:04;;;;;;;13.60;12.32;;;21.70;59.90;;;;;;5015901;28;20386;-62
2022/04/14 09:07:30;;;;;;;14.00;12.63;;;20.80;59.90;;;;;;5012558;28;20401;-62
2022/04/14 09:09:56;;;;;;;14.10;12.80;;;20.70;65.90;;;;;;5012913;28;20057;-62
2022/04/14 09:12:22;;;;;;;14.98;13.63;;;20.60;67.80;;;;;;5014459;28;20049;-62
2022/04/14 09:14:51;;;;;;;14.82;13.48;;;20.70;67.00;;;;;;5019906;28;20049;-64
2022/04/14 09:17:17;;;;;;;22.30;20.20;;;20.80;64.90;;;;;;5017400;28;20575;-62
2022/04/14 09:19:43;;;;;;;13.73;12.43;;;21.10;63.50;;;;;;5018328;28;20488;-63
2022/04/14 09:22:11;;;;;;;18.13;16.33;;;21.10;61.20;;;;;;5020983;28;20049;-62
2022/04/14 09:24:51;;;;;;;20.95;18.88;;;21.40;63.10;;;;;;5011214;28;20085;-62
2022/04/14 09:27:39;;;;;;;13.68;11.88;;;21.60;59.60;;;;;;5019731;28;20583;-62
2022/04/14 09:30:08;;;;;;;19.23;17.42;;;21.30;58.90;;;;;;5018469;28;20123;-62
2022/04/14 09:32:42;;;;;;;15.05;13.55;;;21.10;60.10;;;;;;5003327;28;20103;-62
2022/04/14 09:35:17;;;;;;;14.57;13.18;;;21.60;60.10;;;;;;5017169;28;20050;-62
2022/04/14 09:37:44;;;;;;;13.77;12.45;;;20.80;58.30;;;;;;5017590;28;20053;-62
2022/04/14 09:40:11;;;;;;;12.65;11.45;;;21.00;59.90;;;;;;5020266;28;20053;-62
2022/04/14 09:42:49;;;;;;;12.68;11.48;;;21.10;60.50;;;;;;5017250;28;20084;-63
2022/04/14 09:45:26;;;;;;;12.38;11.18;;;21.60;60.50;;;;;;5012056;28;20387;-62
2022/04/14 09:47:53;;;;;;;13.77;12.55;;;21.70;57.20;;;;;;5013184;28;20053;-58
2022/04/14 09:50:32;;;;;;;15.18;13.65;;;21.70;57.50;;;;;;5013720;28;20054;-60
2022/04/14 09:53:14;;;;;;;17.70;16.10;;;21.70;56.70;;;;;;4998110;28;20042;-60
2022/04/14 09:55:43;;;;;;;14.30;12.90;;;21.60;57.20;;;;;;5014742;28;20397;-61
2022/04/14 09:58:17;;;;;;;14.02;12.73;;;21.80;58.60;;;;;;4990109;28;20077;-57
2022/04/14 10:00:53;;;;;;;15.65;14.15;;;21.20;57.20;;;;;;4993298;28;20050;-55
2022/04/14 10:03:22;;;;;;;11.77;10.55;;;21.60;58.90;;;;;;5008926;28;20708;-57
2022/04/14 10:05:53;;;;;;;12.77;11.57;;;22.20;56.30;;;;;;5009008;28;20049;-55
2022/04/14 10:08:19;;;;;;;;;;;22.20;56.10;;;;;;5011466;28;20050;-55
2022/04/14 10:10:47;;;;;;;13.13;10.80;;;21.60;55.80;;;;;;5006149;28;19987;-56
2022/04/14 10:13:16;;;;;;;11.00;9.75;;;22.20;56.30;;;;;;5012155;28;20538;-55
2022/04/14 10:15:46;;;;;;;9.50;8.68;;;22.50;55.20;;;;;;5019540;28;20056;-55
2022/04/14 10:18:14;;;;;;;10.02;9.02;;;22.20;53.40;;;;;;4982309;28;20497;-55
2022/04/14 10:20:43;;;;;;;11.40;10.30;;;22.70;53.00;;;;;;5021565;28;20053;-55
2022/04/14 10:23:10;;;;;;;9.70;8.57;;;22.50;54.40;;;;;;5008967;28;20046;-55
2022/04/14 10:25:37;;;;;;;10.05;8.95;;;22.80;52.00;;;;;;5012806;28;20145;-54
2022/04/14 10:28:15;;;;;;;9.55;8.43;;;23.00;52.90;;;;;;5010151;28;20057;-53
2022/04/14 10:30:52;;;;;;;9.32;8.38;;;22.70;52.10;;;;;;4987859;28;20046;-55
2022/04/14 10:33:20;;;;;;;10.65;9.48;;;23.00;51.30;;;;;;5012655;28;20073;-55
2022/04/14 10:35:47;;;;;;;11.35;9.75;;;22.80;52.70;;;;;;5010209;28;20054;-55
2022/04/14 10:38:28;;;;;;;13.13;11.85;;;23.00;52.80;;;;;;5016515;28;20041;-55
2022/04/14 10:41:00;;;;;;;;;;;23.60;51.20;;;;;;4992688;28;20505;-54
2022/04/14 10:43:26;;;;;;;13.63;12.25;;;23.20;51.40;;;;;;4995633;28;19933;-54
2022/04/14 10:45:55;;;;;;;8.45;7.65;;;23.70;52.00;;;;;;5012350;28;20046;-54
2022/04/14 10:48:32;;;;;;;9.23;7.30;;;22.70;52.40;;;;;;5012053;28;20049;-54
2022/04/14 10:51:23;;;;;;;7.55;5.25;;;22.60;52.50;;;;;;5007646;28;20060;-55
2022/04/14 10:53:51;;;;;;;8.57;5.70;;;21.80;52.60;;;;;;4993155;28;20053;-60
2022/04/14 10:56:38;;;;;;;8.63;6.13;;;21.60;53.70;;;;;;5016380;28;20304;-61
2022/04/14 10:59:11;;;;;;;7.85;5.50;;;22.10;53.10;;;;;;5013500;28;20152;-60
2022/04/14 11:01:52;;;;;;;8.95;7.18;;;21.70;53.00;;;;;;5008454;28;20049;-61
2022/04/14 11:04:31;;;;;;;8.13;6.63;;;21.50;53.70;;;;;;5012206;28;20122;-61
2022/04/14 11:07:13;;;;;;;9.85;7.70;;;22.40;53.20;;;;;;5009931;28;20084;-61
2022/04/14 11:09:39;;;;;;;7.63;5.68;;;22.50;53.20;;;;;;5000402;28;20042;-61
2022/04/14 11:12:08;;;;;;;8.48;6.22;;;22.50;52.00;;;;;;5009947;28;20475;-61
2022/04/14 11:14:49;;;;;;;8.18;7.10;;;22.70;52.40;;;;;;5010086;28;20049;-61
2022/04/14 11:17:40;;;;;;;12.32;10.25;;;22.80;51.60;;;;;;5010984;28;20064;-61
2022/04/14 11:20:45;;;;;;;8.63;5.72;;;22.40;52.80;;;;;;5025709;28;20037;-58
2022/04/14 11:23:40;;;;;;;6.93;5.35;;;22.30;52.80;;;;;;5008246;28;20061;-60
2022/04/14 11:26:09;;;;;;;8.73;6.50;;;23.00;50.50;;;;;;5008713;28;20077;-60
2022/04/14 11:28:38;;;;;;;9.73;5.68;;;23.90;49.80;;;;;;5009450;28;20054;-61
2022/04/14 11:31:23;;;;;;;5.50;3.38;;;24.60;49.60;;;;;;5010530;28;20174;-61
2022/04/14 11:33:51;;;;;;;6.28;3.60;;;24.70;46.40;;;;;;5009584;28;20048;-60
2022/04/14 11:36:19;;;;;;;5.57;3.80;;;24.20;47.20;;;;;;5009580;28;20049;-60
2022/04/14 11:38:53;;;;;;;7.80;5.25;;;24.80;47.30;;;;;;5009273;28;20050;-54
2022/04/14 11:41:41;;;;;;;6.60;4.00;;;23.50;48.80;;;;;;5012459;28;20682;-53
2022/04/14 11:44:14;;;;;;;7.68;5.65;;;22.80;48.60;;;;;;5018515;28;20056;-54
2022/04/14 11:46:52;;;;;;;5.95;3.97;;;22.60;50.20;;;;;;5007884;28;20050;-54
2022/04/14 11:49:21;;;;;;;6.63;4.45;;;22.80;49.80;;;;;;5013461;28;20043;-53
2022/04/14 11:51:52;;;;;;;6.60;4.50;;;22.60;50.40;;;;;;5017278;28;20149;-53
2022/04/14 11:54:27;;;;;;;6.93;4.10;;;23.30;50.20;;;;;;5010056;28;20420;-54
2022/04/14 11:56:58;;;;;;;6.90;4.30;;;22.90;49.20;;;;;;5018822;28;20053;-60
2022/04/14 11:59:42;;;;;;;4.85;2.92;;;22.80;49.70;;;;;;5010424;28;20844;-60
2022/04/14 12:02:11;;;;;;;9.32;4.53;;;23.40;48.70;;;;;;5019006;28;20076;-60
2022/04/14 12:04:44;;;;;;;4.32;2.75;;;23.20;48.40;;;;;;5019036;28;20041;-61
2022/04/14 12:07:12;;;;;;;5.30;3.03;;;23.70;47.30;;;;;;5017716;28;20045;-54
2022/04/14 12:09:40;;;;;;;7.55;3.03;;;23.90;47.90;;;;;;5007201;28;20072;-50
2022/04/14 12:12:12;;;;;;;10.18;4.78;;;24.10;46.20;;;;;;5010524;28;20081;-60
2022/04/14 12:14:45;;;;;;;4.35;2.25;;;23.80;45.20;;;;;;5002788;28;20366;-50
2022/04/14 12:17:13;;;;;;;3.53;2.17;;;24.10;46.60;;;;;;5015042;28;20131;-55
2022/04/14 12:19:44;;;;;;;4.47;2.40;;;23.70;45.70;;;;;;5009358;28;20104;-56
2022/04/14 12:22:11;;;;;;;16.45;4.38;;;23.50;47.00;;;;;;4997102;28;20072;-56
2022/04/14 12:24:37;;;;;;;10.32;5.47;;;22.80;47.30;;;;;;5011400;28;20053;-56
2022/04/14 12:27:04;;;;;;;10.95;7.25;;;23.70;47.70;;;;;;5010726;28;20041;-56
2022/04/14 12:29:30;;;;;;;30.98;27.63;;;23.50;48.50;;;;;;5011573;28;20053;-55
2022/04/14 12:32:10;;;;;;;10.70;5.00;;;23.90;49.30;;;;;;5023102;28;20088;-56
2022/04/14 12:34:40;;;;;;;15.00;9.38;;;22.60;47.80;;;;;;5015431;28;20501;-57
2022/04/14 12:37:08;;;;;;;19.35;4.88;;;23.30;48.60;;;;;;5009591;28;21583;-57
2022/04/14 12:39:34;;;;;;;13.93;7.13;;;23.50;48.60;;;;;;5003235;28;20054;-60
2022/04/14 12:42:01;;;;;;;12.75;8.75;;;24.10;48.00;;;;;;5010119;28;20049;-59
2022/04/14 12:44:27;;;;;;;7.85;3.70;;;23.20;47.60;;;;;;5014813;28;20077;-59